Latest Coastal Weather Observations for Wynyard

IDT60701

Issued at 1:51 pm EST Wednesday 27 May 2015 (issued every 10 minutes, with the page automatically refreshed every 10 minutes)

About coastal observations | Map of coastal stations | Coastal observations for TAS | Marine services | Other Formats
Station Details ID: 091107 Name: WYNYARD AIRPORT Lat: -41.00 Lon: 145.73 Height: 12.0 m
Data from the previous 72 hours. | See also: Recent months at Wynyard
Date/Time
EST
Temp

°C
Wind Pressure Rain
since 9am
mm
Weather Cloud Vis
km
Sea
Height
m
Swell
Dir
 
Speed
knots
Gust
knots
hPa Trend Height
m
Period
s
Dir
27/01:32pm 13.5 NW 9 14 1016.0 - 1.8 - Partly cloudy 10 - - - -
27/01:30pm 13.6 NW 9 14 1016.1 - 1.8 - Partly cloudy 10 - - - -
27/01:20pm 13.5 NW 10 14 1016.3 - 1.8 - Partly cloudy 5 - - - -
27/01:00pm 13.9 NW 11 14 1016.5 - 1.2 - Partly cloudy 10 - - - -
27/12:57pm 13.8 NW 11 16 1016.5 - 1.2 - Partly cloudy 10 - - - -
27/12:30pm 13.7 NW 10 14 1016.7 - 1.2 - Partly cloudy 10 - - - -
27/12:00pm 13.6 NNW 11 17 1017.1 - 1.2 Rain Cloudy 6 - - - -
27/11:30am 13.5 NNW 7 11 1017.5 - 0.8 - Partly cloudy 10 - - - -
27/11:15am 13.2 N 5 8 1017.8 - 0.8 - Partly cloudy 6 - - - -
27/11:00am 13.3 N 7 10 1018.0 - 0.8 - Partly cloudy 8 - - - -
27/10:51am 13.3 NNW 8 13 1018.2 - 0.8 - Partly cloudy 6 - - - -
27/10:39am 13.4 N 5 10 1018.2 - 0.4 - Partly cloudy 6 - - - -
27/10:30am 13.2 NNW 4 6 1018.3 - 0.4 - Partly cloudy 9 - - - -
27/10:26am 13.1 NW 5 7 1018.4 - 0.4 - Partly cloudy 10 - - - -
27/10:05am 13.3 NNW 6 9 1018.4 - 0.2 - Partly cloudy 5 - - - -
27/10:00am 13.4 NW 5 9 1018.3 - 0.2 - Partly cloudy 8 - - - -
27/09:55am 13.4 NW 5 9 1018.3 - 0.0 - Partly cloudy 10 - - - -
27/09:43am 13.4 NW 5 8 1018.3 - 0.0 - Partly cloudy 10 - - - -
27/09:30am 13.3 NNW 5 7 1018.4 - 0.0 - Partly cloudy 10 - - - -
27/09:25am 13.1 NNW 4 7 1018.4 - 0.0 - Partly cloudy 10 - - - -
27/09:00am 12.9 NNW 5 8 1018.5 - 1.2 Recent precip. Cloudy 10 - - - -
27/08:39am 12.8 NNW 7 10 1018.6 - 1.2 - Partly cloudy 7 - - - -
27/08:30am 12.7 NNW 9 12 1018.7 - 1.0 - Partly cloudy 6 - - - -
27/08:27am 12.8 NNW 10 15 1018.8 - 1.0 - Partly cloudy 5 - - - -
27/08:00am 13.2 NNW 11 16 1018.8 - 0.2 - Partly cloudy 7 - - - -
27/07:30am 13.9 N 8 12 1018.8 - 0.0 - Partly cloudy 10 - - - -
27/07:00am 13.7 N 7 11 1018.9 - 0.0 - Partly cloudy 10 - - - -
27/06:30am 13.7 NNE 9 13 1018.8 - 0.0 - Cloudy 10 - - - -
27/06:00am 13.5 NNE 8 10 1019.2 - 0.0 - Cloudy 10 - - - -
27/05:30am 13.2 NNE 8 12 1019.2 - 0.0 - Partly cloudy 10 - - - -
27/05:12am 13.0 NNE 8 12 1019.5 - 0.0 - Partly cloudy 10 - - - -
27/05:00am 12.6 NE 8 11 1019.7 - 0.0 - Partly cloudy 10 - - - -
27/04:59am 12.5 NE 8 10 1019.8 - 0.0 - Partly cloudy 10 - - - -
27/04:35am 10.3 ESE 3 4 1019.9 - 0.0 - Partly cloudy 10 - - - -
27/04:30am 10.0 SE 3 4 1020.0 - 0.0 - Partly cloudy 10 - - - -
27/04:00am 8.3 WSW 3 5 1020.3 - 0.0 - Partly cloudy 10 - - - -
27/03:58am 8.1 WSW 4 5 1020.4 - 0.0 - Partly cloudy 10 - - - -
27/03:30am 7.1 S 3 5 1020.7 - 0.0 - Partly cloudy 10 - - - -
27/03:00am 6.3 SSW 3 5 1021.3 - 0.0 - Cloudy 7 - - - -
27/02:34am 6.2 WNW 3 5 1021.8 - 0.0 - Partly cloudy 8 - - - -
27/02:30am 5.9 W 4 6 1021.8 - 0.0 - Partly cloudy 8 - - - -
27/02:00am 5.2 WSW 4 4 1022.1 - 0.0 - Partly cloudy 4 - - - -
27/01:30am 5.6 W 4 5 1022.3 - 0.0 - Partly cloudy 5 - - - -
27/01:29am 5.5 W 4 5 1022.3 - 0.0 - Partly cloudy 5 - - - -
27/01:02am 5.4 WSW 5 5 1022.4 - 0.0 - Partly cloudy 6 - - - -
27/01:00am 5.2 WSW 5 5 1022.5 - 0.0 - Partly cloudy 6 - - - -
27/12:30am 6.0 CALM 0 0 1022.8 - 0.0 - Partly cloudy 3 - - - -
27/12:00am 5.9 W 5 6 1023.2 - 0.0 - Cloudy 5 - - - -
 
Date/Time
EST
Temp

°C
Wind Pressure Rain
since 9am
mm
Weather Cloud Vis
km
Sea
Height
m
Swell
Dir
 
Speed
knots
Gust
knots
hPa Trend Height
m
Period
s
Dir
26/11:30pm 7.1 WNW 5 6 1023.3 - 0.0 - Partly cloudy 6 - - - -
26/11:00pm 6.1 W 5 6 1023.3 - 0.0 - Partly cloudy 4 - - - -
26/10:30pm 6.9 W 5 6 1023.4 - 0.0 - - 4 - - - -
26/10:25pm 6.9 W 4 5 1023.4 - 0.0 - - 5 - - - -
26/10:00pm 6.9 WSW 5 5 1023.6 - 0.0 - Partly cloudy 8 - - - -
26/09:44pm 7.0 W 6 7 1023.8 - 0.0 - Partly cloudy 8 - - - -
26/09:30pm 7.1 WNW 6 7 1023.9 - 0.0 - Partly cloudy 5 - - - -
26/09:00pm 7.4 WNW 4 5 1023.9 - 0.0 - Cloudy 6 - - - -
26/08:30pm 6.5 WSW 4 5 1024.2 - 0.0 - - 2 - - - -
26/08:00pm 7.8 W 3 4 1024.5 - 0.0 - - 1 - - - -
26/07:30pm 8.1 WSW 3 4 1024.6 - 0.0 - - 1 - - - -
26/07:09pm 7.3 SSW 4 5 1024.6 - 0.0 - - 4 - - - -
26/07:04pm 7.2 S 2 5 1024.6 - 0.0 - - 10 - - - -
26/07:00pm 7.7 S 2 4 1024.6 - 0.0 - - 10 - - - -
26/06:45pm 7.7 SSW 4 5 1024.6 - 0.0 - - 4 - - - -
26/06:43pm 8.0 SW 5 5 1024.6 - 0.0 - - 8 - - - -
26/06:30pm 8.3 WSW 5 7 1024.8 - 0.0 - - 5 - - - -
26/06:25pm 8.5 SW 5 6 1024.8 - 0.0 - - 5 - - - -
26/06:00pm 9.7 WSW 5 5 1024.7 - 0.0 - Mostly cloudy 10 - - - -
26/05:30pm 10.2 W 5 7 1024.7 - 0.0 - - 10 - - - -
26/05:00pm 12.2 WNW 7 9 1024.6 - 0.0 - - 10 - - - -
26/04:30pm 13.3 NW 6 9 1024.7 - 0.0 - - 10 - - - -
26/04:00pm 14.0 NW 8 10 1024.8 - 0.0 - Partly cloudy 10 - - - -
26/03:30pm 14.6 NNW 6 8 1025.0 - 0.0 - Cloudy 10 - - - -
26/03:00pm 14.9 NW 9 13 1025.0 - 0.0 - Mostly cloudy 10 - - - -
26/02:30pm 16.0 NNW 9 12 1025.0 - 0.0 - Partly cloudy 10 - - - -
26/02:00pm 16.1 NW 8 11 1025.3 - 0.0 - - 10 - - - -
26/01:30pm 16.4 W 7 9 1025.6 - 0.0 - Partly cloudy 10 - - - -
26/01:00pm 15.1 SW 8 11 1026.1 - 0.0 - Partly cloudy 10 - - - -
26/12:30pm 15.6 W 9 12 1026.2 - 0.0 - Partly cloudy 10 - - - -
26/12:00pm 15.4 WSW 8 11 1026.6 - 0.0 - - 10 - - - -
26/11:30am 14.6 W 8 11 1027.1 - 0.0 - Partly cloudy 10 - - - -
26/11:00am 14.7 WNW 7 9 1027.6 - 0.0 - - 10 - - - -
26/10:30am 13.2 NW 7 8 1027.9 - 0.0 - - 10 - - - -
26/10:00am 11.6 WNW 5 7 1027.8 - 0.0 - - 10 - - - -
26/09:30am 9.0 WNW 7 8 1027.9 - 0.0 - Partly cloudy 10 - - - -
26/09:00am 7.9 WNW 4 6 1028.0 - 0.2 - Mostly cloudy 10 - - - -
26/08:37am 5.8 SW 4 6 1028.2 - 0.2 - - 7 - - - -
26/08:30am 5.4 SW 5 6 1028.2 - 0.2 - - 6 - - - -
26/08:12am 4.2 W 5 6 1028.1 - 0.2 - - 5 - - - -
26/08:10am 4.1 W 5 6 1028.1 - 0.2 - - 6 - - - -
26/08:00am 3.4 W 5 6 1028.1 - 0.2 - - 5 - - - -
26/07:30am 2.8 WSW 4 5 1028.0 - 0.2 - - 1 - - - -
26/07:17am 2.9 W 5 6 1027.9 - 0.2 - - 5 - - - -
26/07:00am 4.4 NW 4 5 1027.9 - 0.2 - - 6 - - - -
26/06:53am 4.4 NNW 4 5 1027.9 - 0.2 - - 9 - - - -
26/06:30am 3.2 SSW 3 6 1027.7 - 0.2 - - 3 - - - -
26/06:00am 2.5 WSW 6 7 1027.6 - 0.2 - - 6 - - - -
26/05:30am 3.0 WSW 4 5 1027.6 - 0.2 - Partly cloudy 4 - - - -
26/05:07am 2.6 WSW 4 5 1027.5 - 0.2 - Partly cloudy 0.5 - - - -
26/05:00am 3.1 SW 4 5 1027.6 - 0.2 - Partly cloudy 0.2 - - - -
26/04:51am 4.0 SSW 3 4 1027.6 - 0.2 - Partly cloudy 0.7 - - - -
26/04:30am 3.4 W 5 7 1027.6 - 0.2 - Partly cloudy 3 - - - -
26/04:00am 4.2 NW 5 6 1027.7 - 0.0 - Partly cloudy 4 - - - -
26/03:30am 3.4 W 5 6 1027.8 - 0.0 - Partly cloudy 3 - - - -
26/03:24am 3.3 W 5 7 1027.8 - 0.0 - Partly cloudy 4 - - - -
26/03:00am 4.2 WNW 5 6 1027.9 - 0.0 - Partly cloudy 0.1 - - - -
26/02:55am 4.6 WNW 5 6 1027.9 - 0.0 - Partly cloudy 0.2 - - - -
26/02:46am 3.8 W 6 7 1027.9 - 0.0 - Partly cloudy 5 - - - -
26/02:33am 4.0 W 8 9 1028.0 - 0.0 - - 8 - - - -
26/02:30am 4.0 W 8 9 1028.0 - 0.0 - Partly cloudy 7 - - - -
26/02:11am 4.0 WNW 5 7 1027.8 - 0.0 - Partly cloudy 5 - - - -
26/02:06am 4.2 WNW 5 7 1027.9 - 0.0 - Partly cloudy 8 - - - -
26/02:00am 4.0 W 5 6 1028.0 - 0.0 - Partly cloudy 7 - - - -
26/01:30am 4.1 WSW 5 6 1028.0 - 0.0 - Partly cloudy 5 - - - -
26/01:17am 5.0 WSW 5 7 1027.9 - 0.0 - Partly cloudy 5 - - - -
26/01:11am 4.7 WSW 6 7 1027.9 - 0.0 - Partly cloudy 8 - - - -
26/01:00am 4.5 SW 5 7 1028.0 - 0.0 - Partly cloudy 5 - - - -
26/12:30am 4.3 S 5 7 1028.2 - 0.0 - - 3 - - - -
26/12:00am 3.9 SSW 3 5 1028.3 - 0.0 - Mostly clear 5 - - - -
 
Date/Time
EST
Temp

°C
Wind Pressure Rain
since 9am
mm
Weather Cloud Vis
km
Sea
Height
m
Swell
Dir
 
Speed
knots
Gust
knots
hPa Trend Height
m
Period
s
Dir
25/11:38pm 4.1 WSW 5 6 1028.4 - 0.0 - - 5 - - - -
25/11:30pm 4.4 WSW 5 6 1028.4 - 0.0 - - 6 - - - -
25/11:22pm 4.5 WSW 5 6 1028.4 - 0.0 - - 9 - - - -
25/11:00pm 4.5 SSW 6 7 1028.5 - 0.0 - Partly cloudy 4 - - - -
25/10:30pm 4.7 SSW 4 6 1028.6 - 0.0 - Partly cloudy 5 - - - -
25/10:21pm 5.2 SSW 5 6 1028.7 - 0.0 - Partly cloudy 5 - - - -
25/10:05pm 5.6 SSW 5 6 1028.7 - 0.0 - Partly cloudy 6 - - - -
25/10:00pm 5.1 SW 4 6 1028.8 - 0.0 - Partly cloudy 8 - - - -
25/09:35pm 5.2 WSW 5 6 1028.8 - 0.0 - - 5 - - - -
25/09:30pm 5.4 SW 4 5 1028.8 - 0.0 - - 7 - - - -
25/09:11pm 4.3 S 4 6 1028.7 - 0.0 - - 7 - - - -
25/09:00pm 4.5 SSW 5 6 1028.7 - 0.0 - - 2 - - - -
25/08:30pm 5.3 SW 4 5 1028.6 - 0.0 - - 2 - - - -
25/08:00pm 6.2 W 6 7 1028.6 - 0.0 - - 2 - - - -
25/07:30pm 6.6 W 5 6 1028.5 - 0.0 - - 0.9 - - - -
25/07:00pm 7.5 SW 5 6 1028.2 - 0.0 - - 3 - - - -
25/06:30pm 7.0 WSW 5 6 1028.0 - 0.0 - - 5 - - - -
25/06:25pm 7.0 W 5 6 1028.0 - 0.0 - - 5 - - - -
25/06:00pm 8.0 WSW 5 6 1027.7 - 0.0 - - 10 - - - -
25/05:30pm 10.7 CALM 0 0 1027.6 - 0.0 - Partly cloudy 10 - - - -
25/05:00pm 12.8 NW 5 6 1027.4 - 0.0 - Partly cloudy 10 - - - -
25/04:30pm 13.5 WNW 5 7 1027.2 - 0.0 - Partly cloudy 10 - - - -
25/04:00pm 13.7 NW 5 7 1027.3 - 0.0 - - 10 - - - -
25/03:30pm 14.0 WNW 2 6 1027.3 - 0.0 - Cloudy 10 - - - -
25/03:00pm 13.6 CALM 0 0 1027.3 - 0.0 - Mostly cloudy 10 - - - -
25/02:30pm 12.6 E 3 4 1027.5 - 0.0 - Partly cloudy 10 - - - -
25/02:00pm 12.1 ENE 3 5 1027.7 - 0.0 - Partly cloudy 10 - - - -
25/01:30pm 12.0 NE 4 5 1027.9 - 0.0 - Partly cloudy 10 - - - -
25/01:00pm 12.4 NE 3 5 1028.2 - 0.0 - Partly cloudy 10 - - - -
25/12:30pm 12.1 NE 5 7 1028.5 - 0.0 - Partly cloudy 10 - - - -
25/12:00pm 12.9 NE 4 6 1028.8 - 0.0 - Partly cloudy 10 - - - -
25/11:50am 12.8 ENE 3 5 1029.0 - 0.0 - Partly cloudy 10 - - - -
25/11:30am 11.6 E 3 5 1029.3 - 0.0 - Partly cloudy 10 - - - -
25/11:03am 10.6 CALM 0 0 1029.8 - 0.0 - Partly cloudy 10 - - - -
25/11:00am 10.5 CALM 0 0 1029.8 - 0.0 - Partly cloudy 10 - - - -
25/10:30am 9.3 WNW 4 7 1030.0 - 0.0 - Partly cloudy 10 - - - -
25/10:00am 8.9 WNW 3 4 1029.8 - 0.0 - Partly cloudy 10 - - - -
25/09:30am 8.7 W 4 5 1029.7 - 0.0 - Partly cloudy 10 - - - -
25/09:00am 8.4 W 4 5 1029.8 - 0.0 - Cloudy 10 - - - -
25/08:30am 7.6 WSW 5 6 1029.8 - 0.0 - Partly cloudy 10 - - - -
25/08:00am 7.3 WNW 6 7 1029.6 - 0.0 - Partly cloudy 10 - - - -
25/07:30am 7.0 WNW 5 6 1029.3 - 0.0 - Cloudy 10 - - - -
25/07:00am 7.2 WSW 2 5 1029.2 - 0.0 - Partly cloudy 10 - - - -
25/06:30am 7.2 WNW 5 6 1029.3 - 0.0 - Cloudy 10 - - - -
25/06:00am 7.1 W 5 6 1029.1 - 0.0 - Cloudy 10 - - - -
25/05:30am 6.9 WSW 4 5 1028.9 - 0.0 - Cloudy 10 - - - -
25/05:00am 7.1 WNW 3 5 1029.0 - 0.0 - Cloudy 10 - - - -
25/04:30am 6.9 WSW 2 4 1029.2 - 0.0 - Cloudy 10 - - - -
25/04:00am 6.9 W 4 5 1029.2 - 0.0 - Cloudy 10 - - - -
25/03:30am 7.0 WNW 4 5 1029.1 - 0.0 - Cloudy 10 - - - -
25/03:00am 6.9 W 2 5 1029.4 - 0.0 - Cloudy 10 - - - -
25/02:30am 7.2 W 3 4 1029.6 - 0.0 - Cloudy 10 - - - -
25/02:00am 7.0 SSW 4 5 1029.5 - 0.0 - Cloudy 10 - - - -
25/01:30am 6.8 SSW 5 6 1029.5 - 0.0 - Cloudy 10 - - - -
25/01:00am 6.5 WSW 4 6 1029.7 - 0.0 - Cloudy 10 - - - -
25/12:30am 6.5 WNW 5 6 1030.0 - 0.0 - Cloudy 10 - - - -
25/12:00am 6.5 WNW 4 5 1030.0 - 0.0 - Cloudy 9 - - - -
 
Date/Time
EST
Temp

°C
Wind Pressure Rain
since 9am
mm
Weather Cloud Vis
km
Sea
Height
m
Swell
Dir
 
Speed
knots
Gust
knots
hPa Trend Height
m
Period
s
Dir
24/11:30pm 6.3 WNW 3 4 1030.1 - 0.0 - Cloudy 10 - - - -
24/11:00pm 6.2 W 3 5 1030.0 - 0.0 - Cloudy 10 - - - -
24/10:30pm 5.9 WSW 3 5 1030.1 - 0.0 - Cloudy 10 - - - -
24/10:00pm 5.6 SW 4 5 1030.2 - 0.0 - Cloudy 10 - - - -
24/09:30pm 2.9 WSW 6 7 1030.2 - 0.0 - Partly cloudy 10 - - - -
24/09:00pm 3.4 W 7 8 1030.0 - 0.0 - Mostly clear 9 - - - -
24/08:30pm 2.8 W 6 7 1029.8 - 0.0 - - 10 - - - -
24/08:00pm 3.2 WSW 7 7 1029.6 - 0.0 - - 10 - - - -
24/07:30pm 2.8 SW 5 6 1029.4 - 0.0 - - 10 - - - -
24/07:00pm 5.1 SW 4 4 1029.5 - 0.0 - - 10 - - - -
24/06:30pm 5.1 SW 3 4 1029.5 - 0.0 - - 10 - - - -
24/06:00pm 4.3 WSW 6 6 1029.4 - 0.0 - Mostly cloudy 10 - - - -
24/05:30pm 5.3 W 5 6 1029.2 - 0.0 - - 10 - - - -
24/05:00pm 7.8 SW 3 4 1029.0 - 0.0 - - 10 - - - -
24/04:30pm 10.1 CALM 0 0 1028.8 - 0.0 - - 10 - - - -
24/04:00pm 10.5 CALM 0 0 1028.8 - 0.0 - - 10 - - - -
24/03:30pm 10.5 ENE 1 3 1028.8 - 0.0 - - 10 - - - -
24/03:00pm 10.4 N 4 6 1028.9 - 0.0 - Mostly clear 10 - - - -
24/02:30pm 10.3 N 5 7 1029.0 - 0.0 - - 10 - - - -
24/02:00pm 11.1 NNE 7 9 1029.1 - 0.0 - - 10 - - - -

Other Formats:

Comma delimited format used in spreadsheet applications
http://www.bom.gov.au/fwo/IDT60701/IDT60701.95957.axf

JavaScript Object Notation format (JSON) in row-major order
http://www.bom.gov.au/fwo/IDT60701/IDT60701.95957.json